North Fort Myers, Florida
Current Conditions -  °F | °C
As of 9:53 PM on Friday 31 Oct 2014 (Local Time) from KFMY Reporting Station
Clear Clear  
Wind Chill: 66°   Ceiling: Unl
Heat Index: 66°   Visibility: 10mi
Dew Point: 54°   Wind: 7mph
Humidity: 65%   Direction: 340°NNW
Pressure: 29.92"   Gusts: NA
Location:  26.68°N, 81.9°W
Report Text: KFMY 010153Z 34006KT 10SM CLR 19/12 A2992 RMK AO2 SLP133 T01890122 $
Loading
Personal Weather Stations






























Interactive Weather Map
Tropical Storm Tracking
New forecast layout! Learn more

10-Day Weather Forecast

Advertisements
Track Severe Weather on mobile